Time;durP1;ratioP1;P1;durP2;ratioP2;P2;SDS_P1;SDS_P2;PMS_P1;PMS_P2;Temp;Humidity;BMP_temperature;BMP_pressure;BME280_temperature;BME280_humidity;BME280_pressure;Samples;Min_cycle;Max_cycle;Signal;HPM_P1;HPM_P2
2022/07/18 00:00:46;;;;;;;3.90;1.88;;;;;;;15.30;87.92;102333.00;4952833;29;20332;-51
2022/07/18 00:03:12;;;;;;;3.53;1.77;;;;;;;15.29;88.36;102336.66;4952455;29;20552;-49
2022/07/18 00:05:37;;;;;;;1.80;1.65;;;;;;;15.20;88.77;102335.16;4952897;29;20186;-49
2022/07/18 00:08:03;;;;;;;2.80;2.08;;;;;;;15.18;88.71;102335.19;4952827;29;20174;-49
2022/07/18 00:10:28;;;;;;;3.25;1.77;;;;;;;15.30;88.11;102320.38;4952290;28;20572;-51
2022/07/18 00:12:54;;;;;;;4.30;1.90;;;;;;;15.24;87.39;102326.88;4952597;29;20191;-49
2022/07/18 00:15:19;;;;;;;2.72;1.42;;;;;;;15.21;87.80;102334.19;4952466;29;20186;-50
2022/07/18 00:17:45;;;;;;;3.08;1.70;;;;;;;15.17;87.50;102311.81;4952630;29;20174;-50
2022/07/18 00:20:11;;;;;;;2.47;1.42;;;;;;;15.24;87.39;102316.09;4952816;29;20199;-49
2022/07/18 00:22:37;;;;;;;4.47;1.75;;;;;;;15.20;87.33;102319.81;4952504;29;20211;-49
2022/07/18 00:25:03;;;;;;;1.95;1.75;;;;;;;15.25;86.97;102320.53;4951915;29;20656;-49
2022/07/18 00:27:28;;;;;;;4.38;1.73;;;;;;;15.24;86.25;102316.09;4952182;29;20175;-49
2022/07/18 00:29:54;;;;;;;2.47;1.67;;;;;;;15.22;86.39;102315.25;4951996;28;20234;-52
2022/07/18 00:32:19;;;;;;;2.60;1.85;;;;;;;15.27;86.16;102308.81;4952702;29;20254;-48
2022/07/18 00:34:45;;;;;;;1.85;1.40;;;;;;;15.16;85.61;102296.56;4951255;29;20673;-48
2022/07/18 00:37:10;;;;;;;3.65;1.52;;;;;;;15.22;85.44;102301.75;4952508;29;20683;-50
2022/07/18 00:39:36;;;;;;;4.35;1.80;;;;;;;15.22;85.03;102306.28;4952336;29;20230;-50
2022/07/18 00:42:02;;;;;;;2.03;1.50;;;;;;;15.24;85.10;102301.72;4952551;29;20174;-50
2022/07/18 00:44:28;;;;;;;5.13;1.70;;;;;;;15.13;85.29;102312.88;4951699;28;20619;-48
2022/07/18 00:46:57;;;;;;;1.80;1.65;;;;;;;15.10;85.26;102320.19;4951762;29;20650;-51
2022/07/18 00:49:23;;;;;;;2.38;1.42;;;;;;;15.07;85.68;102320.28;4952446;29;20585;-46
2022/07/18 00:51:48;;;;;;;4.32;1.65;;;;;;;15.02;85.74;102324.03;4952481;29;20163;-49
2022/07/18 00:54:16;;;;;;;2.60;1.48;;;;;;;15.14;85.30;102327.25;4952109;29;20213;-49
2022/07/18 00:56:42;;;;;;;1.92;1.35;;;;;;;15.25;84.94;102316.97;4952143;29;20234;-47
2022/07/18 00:59:10;;;;;;;2.25;1.80;;;;;;;15.06;84.74;102319.38;4951953;29;20206;-46
2022/07/18 01:01:48;;;;;;;2.75;1.63;;;;;;;15.16;84.96;102325.38;4967156;28;20875;-46
2022/07/18 01:04:19;;;;;;;9.68;1.52;;;;;;;15.25;84.69;102311.56;4952039;29;20209;-47
2022/07/18 01:06:46;;;;;;;2.97;1.63;;;;;;;15.24;84.47;102313.38;4952116;29;20195;-48
2022/07/18 01:09:12;;;;;;;2.65;1.60;;;;;;;15.21;84.46;102302.66;4952070;29;20253;-46
2022/07/18 01:11:38;;;;;;;2.38;1.70;;;;;;;15.14;85.01;102305.66;4951889;29;20172;-46
2022/07/18 01:14:05;;;;;;;4.32;1.67;;;;;;;15.00;85.57;102304.28;4951834;29;20179;-48
2022/07/18 01:16:31;;;;;;;2.55;1.63;;;;;;;15.04;85.72;102305.97;4951851;29;20657;-48
2022/07/18 01:18:56;;;;;;;1.35;1.25;;;;;;;14.70;85.83;102310.69;4952231;29;20194;-46
2022/07/18 01:21:22;;;;;;;4.38;2.10;;;;;;;14.79;86.45;102319.34;4952443;28;20167;-45
2022/07/18 01:23:48;;;;;;;1.63;1.35;;;;;;;14.92;86.07;102314.44;4955393;29;20596;-46
2022/07/18 01:26:15;;;;;;;2.75;1.50;;;;;;;14.82;85.03;102321.97;4955374;29;20190;-46
2022/07/18 01:28:43;;;;;;;2.08;1.58;;;;;;;14.93;84.61;102320.72;4955760;28;20255;-48
2022/07/18 01:31:09;;;;;;;2.25;1.67;;;;;;;14.93;84.68;102320.72;4956015;28;20184;-49
2022/07/18 01:33:36;;;;;;;2.92;1.65;;;;;;;15.03;83.96;102325.78;4955445;29;20627;-47
2022/07/18 01:36:04;;;;;;;2.00;1.52;;;;;;;15.12;83.20;102323.72;4938322;29;20171;-49
2022/07/18 01:38:31;;;;;;;1.63;1.50;;;;;;;15.08;82.70;102325.63;4953449;28;20702;-49
2022/07/18 01:40:57;;;;;;;3.58;1.88;;;;;;;15.04;82.79;102322.16;4955297;29;20186;-48
2022/07/18 01:43:24;;;;;;;2.63;1.70;;;;;;;15.08;82.97;102324.75;4955621;29;20199;-45
2022/07/18 01:45:50;;;;;;;2.75;1.50;;;;;;;15.01;82.96;102324.94;4955307;29;20179;-47
2022/07/18 01:48:15;;;;;;;4.15;1.58;;;;;;;15.04;83.17;102315.84;4953965;28;20239;-46
2022/07/18 01:50:41;;;;;;;2.90;1.63;;;;;;;15.19;83.02;102320.75;4963314;28;20182;-49
2022/07/18 01:53:06;;;;;;;1.75;1.52;;;;;;;15.19;82.60;102317.16;4962527;28;20174;-48
2022/07/18 01:55:32;;;;;;;3.22;1.70;;;;;;;15.20;82.14;102300.91;4955247;29;20183;-47
2022/07/18 01:57:57;;;;;;;2.47;1.60;;;;;;;15.27;82.26;102306.13;4954644;29;20163;-45
2022/07/18 02:00:23;;;;;;;1.73;1.50;;;;;;;15.22;81.99;102306.28;4955233;28;20257;-49
2022/07/18 02:02:49;;;;;;;2.10;1.70;;;;;;;15.19;82.32;102304.53;4955024;29;20257;-47
2022/07/18 02:05:14;;;;;;;2.80;2.00;;;;;;;15.17;82.38;102303.69;4937394;29;20218;-46
2022/07/18 02:07:42;;;;;;;4.70;2.13;;;;;;;15.20;81.99;102311.72;4955045;29;20156;-47
2022/07/18 02:10:10;;;;;;;4.75;1.90;;;;;;;15.16;81.52;102299.25;4954894;28;20191;-47
2022/07/18 02:12:35;;;;;;;2.72;1.42;;;;;;;15.31;81.28;102307.78;4955281;29;20159;-47
2022/07/18 02:15:02;;;;;;;2.72;1.77;;;;;;;15.33;81.22;102306.78;4954684;29;20227;-48
2022/07/18 02:17:27;;;;;;;2.53;1.60;;;;;;;15.34;80.85;102292.34;4955008;29;20179;-47
2022/07/18 02:19:53;;;;;;;3.33;2.00;;;;;;;15.27;81.04;102296.19;4954816;28;20258;-46
2022/07/18 02:22:18;;;;;;;3.20;1.75;;;;;;;15.20;81.13;102300.03;4954755;29;20175;-48
2022/07/18 02:24:44;;;;;;;3.25;1.73;;;;;;;15.17;81.09;102302.81;4954353;28;20214;-48
2022/07/18 02:27:10;;;;;;;2.33;1.70;;;;;;;15.28;81.26;102292.53;4954697;29;20174;-48
2022/07/18 02:29:36;;;;;;;2.33;1.60;;;;;;;15.10;81.18;102294.06;4954760;28;20510;-47
2022/07/18 02:32:02;;;;;;;4.05;2.08;;;;;;;15.13;81.26;102290.38;4954537;29;20171;-47
2022/07/18 02:34:28;;;;;;;3.20;1.80;;;;;;;15.10;81.36;102288.66;4954338;28;20219;-47
2022/07/18 02:36:53;;;;;;;2.33;1.65;;;;;;;15.19;81.38;102282.94;4954971;29;20219;-45
2022/07/18 02:39:19;;;;;;;2.22;1.83;;;;;;;15.27;81.26;102287.22;4954230;28;20195;-47
2022/07/18 02:41:45;;;;;;;2.33;1.45;;;;;;;15.29;80.66;102283.53;4954804;29;20250;-48
2022/07/18 02:44:10;;;;;;;2.45;1.80;;;;;;;15.32;80.66;102282.53;4954110;29;20209;-48
2022/07/18 02:46:36;;;;;;;2.97;1.70;;;;;;;15.35;80.10;102274.31;4937494;29;20175;-52
2022/07/18 02:49:02;;;;;;;2.15;1.60;;;;;;;15.28;80.46;102270.94;4954657;28;20566;-54
2022/07/18 02:51:28;;;;;;;2.70;1.52;;;;;;;15.27;80.69;102274.59;4953732;29;20585;-51
2022/07/18 02:53:54;;;;;;;2.50;1.83;;;;;;;15.14;81.63;102276.81;4953902;29;20179;-49
2022/07/18 02:56:20;;;;;;;1.95;1.70;;;;;;;15.09;81.68;102272.53;4954477;29;20177;-47
2022/07/18 02:58:45;;;;;;;1.80;1.70;;;;;;;15.10;81.81;102272.47;4954175;28;20599;-48
2022/07/18 03:01:11;;;;;;;3.05;1.70;;;;;;;15.11;81.72;102282.34;4954562;29;20185;-49
2022/07/18 03:03:37;;;;;;;3.03;2.08;;;;;;;15.12;82.01;102275.13;4953599;29;20205;-51
2022/07/18 03:06:03;;;;;;;2.55;1.55;;;;;;;15.07;82.18;102272.59;4953893;29;20627;-50
2022/07/18 03:08:28;;;;;;;2.17;1.90;;;;;;;15.04;82.34;102269.97;4953556;28;20674;-53
2022/07/18 03:10:54;;;;;;;4.10;2.50;;;;;;;15.02;82.35;102272.75;4953928;29;20651;-47
2022/07/18 03:13:19;;;;;;;2.50;1.77;;;;;;;15.13;82.25;102279.56;4953626;29;20175;-47
2022/07/18 03:15:45;;;;;;;3.28;1.80;;;;;;;15.12;82.13;102267.03;4953420;29;20190;-49
2022/07/18 03:18:10;;;;;;;2.47;1.73;;;;;;;15.18;82.64;102270.38;4953585;29;20359;-50
2022/07/18 03:20:36;;;;;;;3.08;2.05;;;;;;;15.14;82.68;102268.72;4953286;28;20238;-47
2022/07/18 03:23:06;;;;;;;2.25;1.73;;;;;;;15.16;82.50;102261.47;4953050;29;20497;-50
2022/07/18 03:25:31;;;;;;;3.67;1.88;;;;;;;15.22;82.86;102249.56;4953281;29;20666;-51
2022/07/18 03:27:57;;;;;;;3.28;2.00;;;;;;;15.17;82.96;102256.94;4953223;29;20178;-48
2022/07/18 03:30:22;;;;;;;3.63;1.88;;;;;;;15.20;83.19;102257.72;4953270;28;20203;-50
2022/07/18 03:32:48;;;;;;;4.30;1.83;;;;;;;15.24;83.47;102253.09;4952880;29;20169;-49
2022/07/18 03:35:14;;;;;;;3.20;1.70;;;;;;;15.25;83.37;102255.72;4953424;29;20178;-53
2022/07/18 03:37:40;;;;;;;4.50;1.77;;;;;;;15.26;83.39;102248.50;4953274;29;20186;-53
2022/07/18 03:40:06;;;;;;;2.50;1.65;;;;;;;15.31;83.67;102243.84;4938883;29;20277;-49
2022/07/18 03:42:31;;;;;;;3.30;1.67;;;;;;;15.35;83.85;102248.22;4968310;28;20178;-47
2022/07/18 03:44:57;;;;;;;4.22;1.85;;;;;;;15.21;83.89;102243.28;4954033;28;20197;-48
2022/07/18 03:47:22;;;;;;;3.22;2.08;;;;;;;15.13;84.33;102250.78;4966519;28;20714;-48
2022/07/18 03:49:48;;;;;;;5.38;2.00;;;;;;;15.13;84.78;102229.19;4956550;28;20213;-54
2022/07/18 03:52:13;;;;;;;2.40;1.55;;;;;;;15.23;84.87;102225.19;4967198;28;20205;-45
2022/07/18 03:54:39;;;;;;;3.92;2.00;;;;;;;15.24;84.41;102224.28;4952673;29;20163;-48
2022/07/18 03:57:04;;;;;;;2.15;1.65;;;;;;;15.22;84.90;102222.56;4952072;29;20183;-50
2022/07/18 03:59:30;;;;;;;3.22;1.75;;;;;;;15.13;85.04;102218.38;4952777;28;20549;-47
2022/07/18 04:01:55;;;;;;;3.20;1.88;;;;;;;15.22;84.89;102228.84;4952537;29;20270;-47
2022/07/18 04:04:21;;;;;;;2.83;1.70;;;;;;;15.25;85.08;102222.47;4952341;29;20383;-50
2022/07/18 04:06:47;;;;;;;4.00;2.00;;;;;;;15.20;84.99;102229.84;4952782;29;20526;-47
2022/07/18 04:09:12;;;;;;;4.78;2.15;;;;;;;15.27;85.01;102230.50;4952957;28;20262;-48
2022/07/18 04:11:38;;;;;;;5.22;1.92;;;;;;;15.18;85.12;102229.00;4952882;29;20179;-48
2022/07/18 04:14:03;;;;;;;2.85;1.90;;;;;;;15.27;85.19;102225.97;4952612;29;20174;-50
2022/07/18 04:16:29;;;;;;;1.92;1.70;;;;;;;15.21;85.29;102235.16;4952638;29;20543;-48
2022/07/18 04:18:54;;;;;;;3.35;1.95;;;;;;;15.31;85.41;102237.56;4952622;28;20266;-47
2022/07/18 04:21:20;;;;;;;3.50;2.03;;;;;;;15.31;85.41;102242.97;4935297;29;20659;-47
2022/07/18 04:23:45;;;;;;;2.97;1.98;;;;;;;15.39;85.33;102243.56;4951776;29;20234;-52
2022/07/18 04:26:11;;;;;;;2.53;2.30;;;;;;;15.43;85.04;102237.13;4919572;29;20177;-49
2022/07/18 04:28:36;;;;;;;4.47;2.00;;;;;;;15.44;85.12;102244.28;4952492;28;20237;-46
2022/07/18 04:31:02;;;;;;;6.03;2.40;;;;;;;15.50;85.21;102241.34;4952506;29;20183;-51
2022/07/18 04:33:27;;;;;;;2.55;1.88;;;;;;;15.54;84.99;102237.59;4952021;29;20167;-46
2022/07/18 04:35:53;;;;;;;2.75;2.00;;;;;;;15.66;85.21;102229.06;4952537;28;20197;-48
2022/07/18 04:38:18;;;;;;;6.47;2.05;;;;;;;15.70;84.70;102231.63;4952318;28;20210;-50
2022/07/18 04:40:44;;;;;;;5.68;2.00;;;;;;;15.75;84.42;102224.28;4935473;29;20174;-50
2022/07/18 04:43:09;;;;;;;3.90;2.33;;;;;;;15.81;84.49;102233.03;4951965;29;20225;-48
2022/07/18 04:45:35;;;;;;;3.85;2.15;;;;;;;15.92;83.91;102229.94;4952126;29;20241;-49
2022/07/18 04:48:03;;;;;;;2.35;1.90;;;;;;;15.95;83.53;102228.94;4952177;29;20178;-50
2022/07/18 04:50:31;;;;;;;4.20;2.00;;;;;;;15.94;83.82;102228.06;4951901;28;20206;-48
2022/07/18 04:52:57;;;;;;;3.35;1.90;;;;;;;15.99;83.88;102231.44;4952078;29;20223;-47
2022/07/18 04:55:24;;;;;;;3.28;2.30;;;;;;;16.09;83.67;102231.09;4951966;29;20174;-47
2022/07/18 04:57:51;;;;;;;3.63;2.00;;;;;;;16.12;83.18;102229.16;4951310;29;20183;-47
2022/07/18 05:00:20;;;;;;;3.85;2.30;;;;;;;16.17;83.62;102231.69;4952101;28;20198;-49
2022/07/18 05:02:48;;;;;;;2.60;2.40;;;;;;;16.25;83.63;102230.44;4951982;29;20226;-52
2022/07/18 05:05:15;;;;;;;5.40;2.45;;;;;;;16.19;82.86;102221.69;4934363;29;20210;-49
2022/07/18 05:07:42;;;;;;;3.70;1.80;;;;;;;16.39;82.96;102218.19;4952164;29;20183;-50
2022/07/18 05:10:09;;;;;;;4.60;2.13;;;;;;;16.40;82.47;102218.13;4951712;28;20226;-51
2022/07/18 05:12:40;;;;;;;4.75;2.30;;;;;;;16.47;82.02;102213.34;4935160;29;20217;-47
2022/07/18 05:15:08;;;;;;;3.08;1.92;;;;;;;16.54;81.83;102220.25;4951627;29;20598;-46
2022/07/18 05:17:33;;;;;;;4.10;2.00;;;;;;;16.52;81.70;102208.63;4952163;29;20658;-46
2022/07/18 05:19:59;;;;;;;6.30;2.65;;;;;;;16.64;81.36;102215.38;4951804;28;20201;-46
2022/07/18 05:22:25;;;;;;;7.20;2.78;;;;;;;16.64;81.37;102212.66;4951453;29;20191;-46
2022/07/18 05:24:51;;;;;;;5.10;2.35;;;;;;;16.69;81.45;102218.75;4951410;29;20202;-46
2022/07/18 05:27:16;;;;;;;3.35;2.13;;;;;;;16.79;81.12;102220.13;4951473;29;20213;-50
2022/07/18 05:29:41;;;;;;;4.90;2.63;;;;;;;16.85;81.23;102219.88;4951593;29;20596;-49
2022/07/18 05:32:07;;;;;;;4.95;2.20;;;;;;;16.95;81.13;102220.41;4951868;29;20266;-45
2022/07/18 05:34:34;;;;;;;5.05;2.53;;;;;;;16.88;80.83;102216.19;4951295;29;20163;-45
2022/07/18 05:36:59;;;;;;;5.18;2.40;;;;;;;16.96;81.13;102213.16;4951893;29;20229;-45
2022/07/18 05:39:25;;;;;;;4.70;2.40;;;;;;;16.83;80.31;102207.38;4951705;29;20226;-46
2022/07/18 05:41:52;;;;;;;3.88;2.42;;;;;;;16.92;80.76;102206.09;4951719;29;20265;-48
2022/07/18 05:44:19;;;;;;;3.92;2.13;;;;;;;16.94;81.40;102199.66;4951022;29;20190;-45
2022/07/18 05:46:46;;;;;;;2.42;2.17;;;;;;;17.07;81.14;102217.13;4951816;29;20709;-46
2022/07/18 05:49:12;;;;;;;4.22;2.83;;;;;;;17.09;81.57;102219.78;4951832;29;20282;-46
2022/07/18 05:51:37;;;;;;;6.93;2.55;;;;;;;17.05;81.91;102226.28;4951678;29;20372;-46
2022/07/18 05:54:03;;;;;;;7.63;2.60;;;;;;;17.14;80.92;102223.16;4957956;28;20209;-45
2022/07/18 05:56:28;;;;;;;5.47;2.90;;;;;;;17.16;80.12;102215.84;4970664;28;20177;-43
2022/07/18 05:58:54;;;;;;;3.50;2.60;;;;;;;17.16;79.85;102221.28;4971219;28;20338;-45
2022/07/18 06:01:20;;;;;;;4.80;2.88;;;;;;;17.12;79.80;102227.81;4971214;28;20235;-44
2022/07/18 06:03:47;;;;;;;4.95;2.95;;;;;;;17.12;79.34;102224.19;4970477;28;20835;-45
2022/07/18 06:06:13;;;;;;;5.40;2.85;;;;;;;17.11;79.69;102226.03;4970941;28;20174;-45
2022/07/18 06:08:38;;;;;;;7.97;3.35;;;;;;;16.89;80.74;102235.06;4972596;28;20229;-44
2022/07/18 06:11:06;;;;;;;8.43;3.10;;;;;;;16.92;80.04;102223.22;4974288;28;20198;-47
2022/07/18 06:13:33;;;;;;;6.65;2.97;;;;;;;16.95;80.92;102230.34;4974102;28;20198;-44
2022/07/18 06:15:58;;;;;;;4.75;3.17;;;;;;;17.07;80.90;102227.97;4956551;28;20182;-47
2022/07/18 06:18:24;;;;;;;5.82;2.60;;;;;;;17.15;79.94;102218.66;4974012;28;20174;-44
2022/07/18 06:20:49;;;;;;;5.53;2.90;;;;;;;17.23;80.61;102217.38;4973478;28;20185;-47
2022/07/18 06:23:15;;;;;;;3.42;2.70;;;;;;;17.22;79.82;102221.00;4955349;28;20185;-47
2022/07/18 06:25:40;;;;;;;5.65;2.83;;;;;;;17.28;79.84;102218.03;4952542;29;20220;-47
2022/07/18 06:28:05;;;;;;;4.95;2.80;;;;;;;17.43;80.48;102230.03;4954426;29;20178;-45
2022/07/18 06:30:31;;;;;;;4.38;3.10;;;;;;;17.57;79.32;102226.69;4954613;28;20686;-48
2022/07/18 06:32:56;;;;;;;3.85;3.00;;;;;;;17.54;79.10;102232.25;4954205;29;20635;-45
2022/07/18 06:35:22;;;;;;;4.75;3.30;;;;;;;17.67;79.29;102227.16;4954470;29;20265;-46
2022/07/18 06:37:47;;;;;;;4.85;3.28;;;;;;;17.61;78.34;102225.59;4954356;29;20186;-47
2022/07/18 06:40:13;;;;;;;6.18;3.15;;;;;;;17.59;78.16;102226.63;4954758;28;20191;-49
2022/07/18 06:42:38;;;;;;;7.78;3.45;;;;;;;17.56;79.23;102230.34;4954421;29;20604;-45
2022/07/18 06:45:05;;;;;;;4.35;3.00;;;;;;;17.65;78.37;102229.06;4953924;29;20195;-46
2022/07/18 06:47:31;;;;;;;6.72;3.25;;;;;;;17.65;78.59;102226.34;4954360;29;20693;-46
2022/07/18 06:49:56;;;;;;;5.80;3.30;;;;;;;17.64;78.41;102232.72;4954057;28;20184;-45
2022/07/18 06:52:22;;;;;;;5.03;3.17;;;;;;;17.76;77.08;102229.44;4954327;29;20239;-46
2022/07/18 06:54:47;;;;;;;5.78;3.33;;;;;;;17.90;77.74;102236.97;4953783;28;20662;-51
2022/07/18 06:57:13;;;;;;;3.38;2.90;;;;;;;18.01;76.80;102231.03;4954071;29;20195;-45
2022/07/18 06:59:38;;;;;;;4.53;2.90;;;;;;;17.98;77.00;102233.91;4954243;28;20190;-49
2022/07/18 07:02:04;;;;;;;4.50;3.40;;;;;;;18.05;76.99;102236.25;4954219;29;20178;-49
2022/07/18 07:04:30;;;;;;;4.32;3.15;;;;;;;18.10;76.04;102239.63;4953935;29;20199;-44
2022/07/18 07:06:56;;;;;;;6.25;2.70;;;;;;;18.29;76.42;102236.03;4953211;29;20186;-45
2022/07/18 07:09:21;;;;;;;5.47;3.42;;;;;;;18.32;76.83;102233.16;4953592;28;20211;-46
2022/07/18 07:11:47;;;;;;;6.47;3.30;;;;;;;18.52;76.31;102237.63;4953693;29;20182;-50
2022/07/18 07:14:12;;;;;;;8.15;3.25;;;;;;;18.76;75.61;102223.78;4953866;29;20196;-47
2022/07/18 07:16:38;;;;;;;4.78;3.15;;;;;;;18.79;74.19;102227.25;4953966;29;20191;-48
2022/07/18 07:19:03;;;;;;;3.28;2.97;;;;;;;18.69;75.29;102225.91;4952870;28;20556;-45
2022/07/18 07:21:29;;;;;;;4.90;3.33;;;;;;;18.78;75.15;102220.06;4953532;29;20877;-51
2022/07/18 07:23:54;;;;;;;3.63;3.00;;;;;;;18.85;73.90;102212.50;4953537;29;20203;-46
2022/07/18 07:26:20;;;;;;;6.07;3.42;;;;;;;19.04;74.35;102207.84;4953903;29;20179;-47
2022/07/18 07:28:45;;;;;;;5.28;3.00;;;;;;;19.42;72.90;102210.41;4953868;28;20627;-47
2022/07/18 07:31:11;;;;;;;6.82;3.30;;;;;;;19.54;71.48;102209.72;4953301;29;20167;-46
2022/07/18 07:33:36;;;;;;;5.22;2.83;;;;;;;19.67;70.57;102209.06;4953077;29;20167;-47
2022/07/18 07:36:03;;;;;;;4.13;3.15;;;;;;;19.77;70.19;102210.38;4936179;29;20175;-46
2022/07/18 07:38:29;;;;;;;3.67;3.20;;;;;;;19.58;71.38;102206.88;4953293;28;20186;-47
2022/07/18 07:40:55;;;;;;;6.97;3.03;;;;;;;19.81;71.04;102201.09;4953163;29;20174;-47
2022/07/18 07:43:21;;;;;;;4.60;3.15;;;;;;;20.03;71.48;102203.47;4952921;28;20169;-45
2022/07/18 07:45:48;;;;;;;7.57;3.35;;;;;;;19.98;69.58;102197.41;4936248;29;20630;-47
2022/07/18 07:48:15;;;;;;;5.30;3.63;;;;;;;19.78;70.08;102189.50;4952908;29;20179;-49
2022/07/18 07:50:41;;;;;;;4.22;3.28;;;;;;;20.01;70.14;102183.66;4953171;29;20254;-44
2022/07/18 07:53:07;;;;;;;5.13;3.42;;;;;;;20.17;69.97;102181.78;4952488;29;20327;-50
2022/07/18 07:55:32;;;;;;;5.70;3.40;;;;;;;20.19;69.48;102184.44;4952914;29;20190;-47
2022/07/18 07:57:58;;;;;;;4.40;3.15;;;;;;;20.33;69.35;102178.19;4953082;29;20182;-52
2022/07/18 08:00:24;;;;;;;4.32;3.08;;;;;;;20.43;69.19;102181.28;4935430;29;20190;-46
2022/07/18 08:02:54;;;;;;;6.78;3.83;;;;;;;20.28;68.58;102183.03;4953087;29;20186;-47
2022/07/18 08:05:20;;;;;;;4.57;3.72;;;;;;;20.23;69.48;102169.69;4952339;29;20372;-49
2022/07/18 08:07:45;;;;;;;5.97;3.80;;;;;;;20.22;68.73;102176.09;4952855;29;20183;-50
2022/07/18 08:10:11;;;;;;;5.18;3.38;;;;;;;20.20;68.82;102174.41;4952390;28;20214;-51
2022/07/18 08:12:36;;;;;;;6.63;3.72;;;;;;;20.05;69.60;102168.91;4952702;29;20620;-46
2022/07/18 08:15:01;;;;;;;5.65;3.83;;;;;;;20.06;69.02;102165.22;4952300;29;20698;-46
2022/07/18 08:17:27;;;;;;;6.13;3.85;;;;;;;20.00;69.00;102159.25;4952482;29;20179;-50
2022/07/18 08:19:52;;;;;;;5.35;3.75;;;;;;;20.00;70.11;102162.81;4952802;28;20266;-48
2022/07/18 08:22:18;;;;;;;7.93;3.95;;;;;;;20.01;69.71;102155.56;4952430;29;20186;-48
2022/07/18 08:24:43;;;;;;;7.95;4.03;;;;;;;20.13;69.84;102149.41;4951724;29;20578;-49
2022/07/18 08:27:09;;;;;;;5.40;3.90;;;;;;;20.22;68.98;102153.44;4950220;29;20166;-50
2022/07/18 08:29:35;;;;;;;5.38;3.83;;;;;;;20.41;68.40;102151.41;4944535;28;20209;-46
2022/07/18 08:32:00;;;;;;;4.47;4.07;;;;;;;20.47;67.65;102148.31;4952319;28;20243;-47
2022/07/18 08:34:26;;;;;;;7.63;3.90;;;;;;;20.81;67.73;102140.00;4951935;29;20223;-48
2022/07/18 08:36:51;;;;;;;6.03;4.10;;;;;;;20.89;66.50;102135.84;4952345;29;20166;-49
2022/07/18 08:39:17;;;;;;;4.75;3.95;;;;;;;21.00;66.33;102135.19;4951920;28;20263;-46
2022/07/18 08:41:47;;;;;;;5.82;4.15;;;;;;;21.04;66.17;102138.63;4952310;29;20618;-47
2022/07/18 08:44:12;;;;;;;6.00;4.25;;;;;;;21.05;66.03;102140.34;4951587;29;20284;-48
2022/07/18 08:46:39;;;;;;;5.15;3.70;;;;;;;21.27;65.59;102159.84;4934509;29;20257;-49
2022/07/18 08:49:07;;;;;;;7.45;4.68;;;;;;;21.16;65.17;102159.66;4952005;28;20269;-48
2022/07/18 08:51:34;;;;;;;12.80;4.35;;;;;;;21.41;65.03;102148.13;4951930;29;20324;-47
2022/07/18 08:54:02;;;;;;;8.82;4.85;;;;;;;21.80;64.00;102141.97;4951646;29;20170;-47
2022/07/18 08:56:28;;;;;;;5.82;4.43;;;;;;;21.88;63.26;102140.59;4951930;29;20162;-47
2022/07/18 08:58:53;;;;;;;6.88;4.47;;;;;;;21.90;63.92;102142.25;4951937;28;20197;-50
2022/07/18 09:01:19;;;;;;;8.00;4.22;;;;;;;21.97;64.07;102137.25;4952248;29;20525;-49
2022/07/18 09:03:46;;;;;;;6.70;4.28;;;;;;;21.94;62.67;102148.38;4950994;29;20297;-48
2022/07/18 09:06:13;;;;;;;6.30;4.40;;;;;;;21.77;63.60;102142.16;4951594;29;20174;-49
2022/07/18 09:08:56;;;;;;;4.50;4.10;;;;;;;21.78;63.03;102133.03;4951952;28;20200;-48
2022/07/18 09:11:22;;;;;;;9.13;4.50;;;;;;;21.92;63.01;102148.47;4951915;29;20709;-48
2022/07/18 09:13:47;;;;;;;11.25;5.10;;;;;;;22.17;62.17;102146.84;4951991;29;20306;-48
2022/07/18 09:16:14;;;;;;;4.40;3.85;;;;;;;22.11;62.26;102147.28;4951975;29;20553;-48
2022/07/18 09:18:46;;;;;;;6.63;4.20;;;;;;;22.30;61.74;102150.59;4952162;28;20209;-50
2022/07/18 09:21:13;;;;;;;7.28;4.65;;;;;;;22.28;62.33;102140.72;4934872;29;20547;-49
2022/07/18 09:23:41;;;;;;;8.40;6.15;;;;;;;22.33;61.43;102144.91;4951739;29;20269;-47
2022/07/18 09:26:09;;;;;;;7.03;4.43;;;;;;;22.33;61.12;102154.97;4951939;29;20186;-48
2022/07/18 09:28:51;;;;;;;10.40;5.72;;;;;;;22.57;62.06;102147.84;4951687;28;20234;-48
2022/07/18 09:31:21;;;;;;;7.45;4.40;;;;;;;22.78;60.76;102144.59;4951941;29;20188;-46
2022/07/18 09:34:02;;;;;;;4.97;3.58;;;;;;;22.98;60.14;102143.22;4951586;29;20182;-48
2022/07/18 09:36:28;;;;;;;4.85;3.65;;;;;;;22.80;59.87;102146.25;4951662;29;20230;-48
2022/07/18 09:38:55;;;;;;;5.03;4.40;;;;;;;22.91;60.19;102140.03;4951820;28;20534;-51
2022/07/18 09:41:26;;;;;;;7.90;4.50;;;;;;;22.84;60.08;102130.50;4951826;29;20202;-45
2022/07/18 09:43:52;;;;;;;6.00;4.03;;;;;;;22.79;60.54;102129.97;4954107;28;20293;-49
2022/07/18 09:46:17;;;;;;;4.60;4.13;;;;;;;23.14;59.88;102118.47;4955429;29;20654;-46
2022/07/18 09:48:43;;;;;;;4.85;3.85;;;;;;;23.19;59.50;102105.31;4955684;28;20186;-48
2022/07/18 09:51:09;;;;;;;6.35;4.38;;;;;;;23.29;59.19;102103.69;4955140;29;20253;-50
2022/07/18 09:53:41;;;;;;;6.65;4.30;;;;;;;23.77;57.17;102111.22;4955160;29;20230;-46
2022/07/18 09:56:12;;;;;;;6.15;4.10;;;;;;;24.21;57.68;102099.66;4967303;28;20192;-48
2022/07/18 09:58:49;;;;;;;4.82;3.65;;;;;;;23.95;56.37;102103.47;4955799;28;20200;-48
2022/07/18 10:01:15;;;;;;;13.07;3.92;;;;;;;23.89;55.56;102109.41;4974902;28;20320;-46
2022/07/18 10:03:41;;;;;;;4.47;3.90;;;;;;;24.05;54.65;102110.00;4974236;28;20654;-48
2022/07/18 10:06:06;;;;;;;5.63;3.88;;;;;;;24.36;54.47;102100.34;4974703;28;20176;-47
2022/07/18 10:08:34;;;;;;;5.90;3.85;;;;;;;24.34;54.04;102101.47;4974360;28;20178;-48
2022/07/18 10:11:00;;;;;;;5.00;3.88;;;;;;;24.44;53.84;102100.59;4974364;28;20177;-48
2022/07/18 10:13:28;;;;;;;4.97;4.03;;;;;;;24.52;54.46;102107.44;4955815;28;20252;-49
2022/07/18 10:15:53;;;;;;;4.40;4.00;;;;;;;24.55;54.48;102097.06;4974020;28;20264;-47
2022/07/18 10:18:24;;;;;;;5.55;4.28;;;;;;;24.45;53.62;102102.38;4974238;28;20172;-50
2022/07/18 10:20:59;;;;;;;6.68;4.50;;;;;;;24.35;53.28;102098.59;4974153;28;20169;-50
2022/07/18 10:23:27;;;;;;;5.70;4.40;;;;;;;24.24;54.88;102093.94;4973600;28;20636;-48
2022/07/18 10:26:12;;;;;;;4.85;4.38;;;;;;;24.13;55.18;102095.75;4974060;28;20184;-49
2022/07/18 10:29:00;;;;;;;6.75;3.95;;;;;;;24.67;55.31;102092.53;4973619;28;20197;-47
2022/07/18 10:31:25;;;;;;;5.78;4.80;;;;;;;24.49;54.60;102091.19;4974032;28;20213;-47
2022/07/18 10:33:52;;;;;;;5.47;4.22;;;;;;;24.53;55.93;102096.31;4956107;28;20325;-48
2022/07/18 10:36:20;;;;;;;7.13;4.70;;;;;;;24.62;55.05;102095.63;4973850;28;20188;-47
2022/07/18 10:39:21;;;;;;;5.93;4.40;;;;;;;24.31;53.90;102096.19;4973807;28;20237;-47
2022/07/18 10:41:46;;;;;;;5.57;4.30;;;;;;;24.45;55.10;102096.91;4973873;28;20236;-46
2022/07/18 10:44:24;;;;;;;4.68;4.28;;;;;;;24.67;53.37;102109.84;4973334;28;20280;-47
2022/07/18 10:47:08;;;;;;;5.63;5.05;;;;;;;24.76;53.17;102096.41;4973849;28;20181;-47
2022/07/18 10:49:57;;;;;;;5.00;4.45;;;;;;;24.97;53.34;102097.47;4973752;28;20201;-49
2022/07/18 10:52:23;;;;;;;5.15;4.68;;;;;;;24.83;53.42;102100.41;4973525;28;20158;-49
2022/07/18 10:55:01;;;;;;;7.00;5.28;;;;;;;24.71;52.98;102088.56;4972212;28;20189;-47
2022/07/18 10:57:27;;;;;;;6.65;5.15;;;;;;;24.82;55.90;102088.59;4973107;28;20268;-45
2022/07/18 11:00:27;;;;;;;6.65;4.78;;;;;;;24.87;53.68;102089.09;4973803;28;20239;-48
2022/07/18 11:03:09;;;;;;;6.57;5.30;;;;;;;24.58;52.94;102085.03;4947455;28;20288;-50
2022/07/18 11:05:41;;;;;;;5.72;4.97;;;;;;;24.99;53.38;102081.78;4973320;28;20707;-47
2022/07/18 11:08:12;;;;;;;7.38;5.20;;;;;;;24.95;53.54;102076.63;4973376;28;20162;-48
2022/07/18 11:13:24;;;;;;;5.70;5.10;;;;;;;25.36;52.75;102083.44;4972806;28;20716;-47
2022/07/18 11:15:54;;;;;;;5.70;4.68;;;;;;;25.61;52.17;102060.38;4972973;28;20193;-45
2022/07/18 11:18:20;;;;;;;7.97;5.32;;;;;;;25.60;52.79;102067.69;4973343;28;20173;-46
2022/07/18 11:20:45;;;;;;;6.80;5.13;;;;;;;25.37;51.67;102063.25;4972746;28;20221;-46
2022/07/18 11:23:22;;;;;;;5.80;5.25;;;;;;;25.82;52.09;102044.84;4972655;28;20661;-47
2022/07/18 11:25:56;;;;;;;5.72;5.07;;;;;;;25.41;51.68;102049.16;4972880;28;20231;-46